sensor_id;sensor_type;location;lat;lon;timestamp;P1;durP1;ratioP1;P2;durP2;ratioP2
18082;SDS011;9168;51.194;6.840;2024-03-02T00:01:31;3.83;;;1.48;;
18082;SDS011;9168;51.194;6.840;2024-03-02T00:03:58;2.65;;;1.50;;
18082;SDS011;9168;51.194;6.840;2024-03-02T00:06:27;4.03;;;1.20;;
18082;SDS011;9168;51.194;6.840;2024-03-02T00:08:56;3.13;;;1.20;;
18082;SDS011;9168;51.194;6.840;2024-03-02T00:11:24;2.60;;;1.35;;
18082;SDS011;9168;51.194;6.840;2024-03-02T00:13:52;5.07;;;1.13;;
18082;SDS011;9168;51.194;6.840;2024-03-02T00:16:19;2.83;;;1.17;;
18082;SDS011;9168;51.194;6.840;2024-03-02T00:18:47;2.97;;;1.25;;
18082;SDS011;9168;51.194;6.840;2024-03-02T00:21:14;2.03;;;1.20;;
18082;SDS011;9168;51.194;6.840;2024-03-02T00:23:44;3.60;;;1.23;;
18082;SDS011;9168;51.194;6.840;2024-03-02T00:26:11;2.65;;;1.20;;
18082;SDS011;9168;51.194;6.840;2024-03-02T00:28:38;3.40;;;1.48;;
18082;SDS011;9168;51.194;6.840;2024-03-02T00:31:09;2.60;;;1.27;;
18082;SDS011;9168;51.194;6.840;2024-03-02T00:33:39;5.53;;;1.25;;
18082;SDS011;9168;51.194;6.840;2024-03-02T00:36:08;2.72;;;1.30;;
18082;SDS011;9168;51.194;6.840;2024-03-02T00:38:40;3.97;;;1.17;;
18082;SDS011;9168;51.194;6.840;2024-03-02T00:41:15;1.75;;;1.00;;
18082;SDS011;9168;51.194;6.840;2024-03-02T00:43:49;2.95;;;1.00;;
18082;SDS011;9168;51.194;6.840;2024-03-02T00:46:23;1.67;;;1.00;;
18082;SDS011;9168;51.194;6.840;2024-03-02T00:48:53;2.70;;;1.05;;
18082;SDS011;9168;51.194;6.840;2024-03-02T00:51:21;1.85;;;1.10;;
18082;SDS011;9168;51.194;6.840;2024-03-02T00:53:53;1.95;;;1.00;;
18082;SDS011;9168;51.194;6.840;2024-03-02T00:56:22;7.63;;;1.45;;
18082;SDS011;9168;51.194;6.840;2024-03-02T00:58:49;3.63;;;1.27;;
18082;SDS011;9168;51.194;6.840;2024-03-02T01:01:16;4.35;;;1.33;;
18082;SDS011;9168;51.194;6.840;2024-03-02T01:03:43;3.53;;;1.08;;
18082;SDS011;9168;51.194;6.840;2024-03-02T01:06:10;2.63;;;1.13;;
18082;SDS011;9168;51.194;6.840;2024-03-02T01:11:06;2.97;;;1.20;;
18082;SDS011;9168;51.194;6.840;2024-03-02T01:13:33;3.33;;;1.05;;
18082;SDS011;9168;51.194;6.840;2024-03-02T01:16:01;4.20;;;1.20;;
18082;SDS011;9168;51.194;6.840;2024-03-02T01:18:29;1.88;;;1.08;;
18082;SDS011;9168;51.194;6.840;2024-03-02T01:20:56;3.95;;;1.38;;
18082;SDS011;9168;51.194;6.840;2024-03-02T01:23:23;3.17;;;1.45;;
18082;SDS011;9168;51.194;6.840;2024-03-02T01:25:50;1.77;;;1.05;;
18082;SDS011;9168;51.194;6.840;2024-03-02T01:28:18;2.38;;;1.13;;
18082;SDS011;9168;51.194;6.840;2024-03-02T01:30:45;1.40;;;0.93;;
18082;SDS011;9168;51.194;6.840;2024-03-02T01:33:12;4.43;;;0.93;;
18082;SDS011;9168;51.194;6.840;2024-03-02T01:35:40;1.83;;;1.08;;
18082;SDS011;9168;51.194;6.840;2024-03-02T01:38:07;2.20;;;1.08;;
18082;SDS011;9168;51.194;6.840;2024-03-02T01:40:34;1.85;;;0.95;;
18082;SDS011;9168;51.194;6.840;2024-03-02T01:43:01;2.70;;;1.17;;
18082;SDS011;9168;51.194;6.840;2024-03-02T01:45:29;1.35;;;1.00;;
18082;SDS011;9168;51.194;6.840;2024-03-02T01:47:57;2.70;;;1.00;;
18082;SDS011;9168;51.194;6.840;2024-03-02T01:50:25;2.63;;;1.00;;
18082;SDS011;9168;51.194;6.840;2024-03-02T01:52:53;3.17;;;1.13;;
18082;SDS011;9168;51.194;6.840;2024-03-02T01:55:20;6.07;;;1.63;;
18082;SDS011;9168;51.194;6.840;2024-03-02T01:57:47;2.00;;;0.90;;
18082;SDS011;9168;51.194;6.840;2024-03-02T02:00:16;2.75;;;1.00;;
18082;SDS011;9168;51.194;6.840;2024-03-02T02:02:44;1.33;;;0.73;;
18082;SDS011;9168;51.194;6.840;2024-03-02T02:05:11;2.10;;;0.90;;
18082;SDS011;9168;51.194;6.840;2024-03-02T02:07:39;2.88;;;1.00;;
18082;SDS011;9168;51.194;6.840;2024-03-02T02:10:07;1.48;;;0.85;;
18082;SDS011;9168;51.194;6.840;2024-03-02T02:12:34;3.47;;;0.90;;
18082;SDS011;9168;51.194;6.840;2024-03-02T02:15:01;1.40;;;0.88;;
18082;SDS011;9168;51.194;6.840;2024-03-02T02:17:28;1.00;;;0.80;;
18082;SDS011;9168;51.194;6.840;2024-03-02T02:19:57;0.65;;;0.63;;
18082;SDS011;9168;51.194;6.840;2024-03-02T02:22:25;2.05;;;0.93;;
18082;SDS011;9168;51.194;6.840;2024-03-02T02:24:52;5.40;;;1.17;;
18082;SDS011;9168;51.194;6.840;2024-03-02T02:27:19;2.08;;;0.90;;
18082;SDS011;9168;51.194;6.840;2024-03-02T02:29:45;2.63;;;0.80;;
18082;SDS011;9168;51.194;6.840;2024-03-02T02:32:12;1.38;;;0.75;;
18082;SDS011;9168;51.194;6.840;2024-03-02T02:34:39;3.30;;;1.10;;
18082;SDS011;9168;51.194;6.840;2024-03-02T02:37:06;5.68;;;0.93;;
18082;SDS011;9168;51.194;6.840;2024-03-02T02:39:34;2.67;;;1.27;;
18082;SDS011;9168;51.194;6.840;2024-03-02T02:42:01;4.80;;;1.15;;
18082;SDS011;9168;51.194;6.840;2024-03-02T02:44:29;1.70;;;0.80;;
18082;SDS011;9168;51.194;6.840;2024-03-02T02:46:56;2.58;;;1.08;;
18082;SDS011;9168;51.194;6.840;2024-03-02T02:49:23;2.75;;;1.13;;
18082;SDS011;9168;51.194;6.840;2024-03-02T02:51:50;2.80;;;0.90;;
18082;SDS011;9168;51.194;6.840;2024-03-02T02:54:17;2.78;;;0.70;;
18082;SDS011;9168;51.194;6.840;2024-03-02T02:56:45;11.45;;;0.95;;
18082;SDS011;9168;51.194;6.840;2024-03-02T02:59:12;2.17;;;0.82;;
18082;SDS011;9168;51.194;6.840;2024-03-02T03:01:39;3.83;;;1.02;;
18082;SDS011;9168;51.194;6.840;2024-03-02T03:04:05;1.30;;;0.90;;
18082;SDS011;9168;51.194;6.840;2024-03-02T03:06:32;7.90;;;0.95;;
18082;SDS011;9168;51.194;6.840;2024-03-02T03:08:59;1.77;;;0.85;;
18082;SDS011;9168;51.194;6.840;2024-03-02T03:11:26;2.40;;;1.08;;
18082;SDS011;9168;51.194;6.840;2024-03-02T03:13:55;2.78;;;0.93;;
18082;SDS011;9168;51.194;6.840;2024-03-02T03:16:22;1.75;;;0.90;;
18082;SDS011;9168;51.194;6.840;2024-03-02T03:18:48;3.25;;;1.33;;
18082;SDS011;9168;51.194;6.840;2024-03-02T03:21:18;5.15;;;1.10;;
18082;SDS011;9168;51.194;6.840;2024-03-02T03:23:45;2.60;;;1.02;;
18082;SDS011;9168;51.194;6.840;2024-03-02T03:26:12;1.35;;;0.77;;
18082;SDS011;9168;51.194;6.840;2024-03-02T03:28:39;0.95;;;0.68;;
18082;SDS011;9168;51.194;6.840;2024-03-02T03:31:07;3.60;;;1.23;;
18082;SDS011;9168;51.194;6.840;2024-03-02T03:33:34;2.53;;;0.90;;
18082;SDS011;9168;51.194;6.840;2024-03-02T03:36:01;4.90;;;1.17;;
18082;SDS011;9168;51.194;6.840;2024-03-02T03:38:28;1.73;;;0.88;;
18082;SDS011;9168;51.194;6.840;2024-03-02T03:40:55;2.92;;;1.23;;
18082;SDS011;9168;51.194;6.840;2024-03-02T03:43:22;3.05;;;1.17;;
18082;SDS011;9168;51.194;6.840;2024-03-02T03:45:49;3.53;;;1.20;;
18082;SDS011;9168;51.194;6.840;2024-03-02T03:48:17;2.70;;;1.30;;
18082;SDS011;9168;51.194;6.840;2024-03-02T03:50:45;1.98;;;0.93;;
18082;SDS011;9168;51.194;6.840;2024-03-02T03:53:12;1.27;;;0.85;;
18082;SDS011;9168;51.194;6.840;2024-03-02T03:55:39;4.55;;;1.25;;
18082;SDS011;9168;51.194;6.840;2024-03-02T03:58:07;1.17;;;0.68;;
18082;SDS011;9168;51.194;6.840;2024-03-02T04:00:34;1.17;;;0.80;;
18082;SDS011;9168;51.194;6.840;2024-03-02T04:03:01;2.35;;;0.95;;
18082;SDS011;9168;51.194;6.840;2024-03-02T04:05:29;1.60;;;1.10;;
18082;SDS011;9168;51.194;6.840;2024-03-02T04:07:56;1.67;;;0.80;;
18082;SDS011;9168;51.194;6.840;2024-03-02T04:10:23;2.20;;;0.80;;
18082;SDS011;9168;51.194;6.840;2024-03-02T04:12:50;2.97;;;1.10;;
18082;SDS011;9168;51.194;6.840;2024-03-02T04:15:17;3.50;;;1.15;;
18082;SDS011;9168;51.194;6.840;2024-03-02T04:17:44;2.33;;;1.13;;
18082;SDS011;9168;51.194;6.840;2024-03-02T04:20:11;3.05;;;1.10;;
18082;SDS011;9168;51.194;6.840;2024-03-02T04:22:40;1.95;;;0.70;;
18082;SDS011;9168;51.194;6.840;2024-03-02T04:25:07;2.47;;;1.10;;
18082;SDS011;9168;51.194;6.840;2024-03-02T04:27:34;2.60;;;1.08;;
18082;SDS011;9168;51.194;6.840;2024-03-02T04:30:01;3.17;;;0.98;;
18082;SDS011;9168;51.194;6.840;2024-03-02T04:32:30;3.28;;;1.30;;
18082;SDS011;9168;51.194;6.840;2024-03-02T04:34:57;1.95;;;1.10;;
18082;SDS011;9168;51.194;6.840;2024-03-02T04:37:23;2.58;;;0.80;;
18082;SDS011;9168;51.194;6.840;2024-03-02T04:39:52;1.35;;;0.98;;
18082;SDS011;9168;51.194;6.840;2024-03-02T04:42:19;2.75;;;1.20;;
18082;SDS011;9168;51.194;6.840;2024-03-02T04:44:45;2.67;;;1.02;;
18082;SDS011;9168;51.194;6.840;2024-03-02T04:47:12;1.75;;;0.82;;
18082;SDS011;9168;51.194;6.840;2024-03-02T04:49:39;2.55;;;0.80;;
18082;SDS011;9168;51.194;6.840;2024-03-02T04:52:06;1.27;;;0.82;;
18082;SDS011;9168;51.194;6.840;2024-03-02T04:54:33;1.90;;;0.85;;
18082;SDS011;9168;51.194;6.840;2024-03-02T04:57:22;9.35;;;1.10;;
18082;SDS011;9168;51.194;6.840;2024-03-02T04:59:48;2.05;;;1.00;;
18082;SDS011;9168;51.194;6.840;2024-03-02T05:02:15;2.70;;;1.20;;
18082;SDS011;9168;51.194;6.840;2024-03-02T05:04:42;2.88;;;1.00;;
18082;SDS011;9168;51.194;6.840;2024-03-02T05:07:09;2.22;;;0.90;;
18082;SDS011;9168;51.194;6.840;2024-03-02T05:09:36;2.40;;;0.98;;
18082;SDS011;9168;51.194;6.840;2024-03-02T05:12:03;3.25;;;1.10;;
18082;SDS011;9168;51.194;6.840;2024-03-02T05:14:55;2.38;;;0.90;;
18082;SDS011;9168;51.194;6.840;2024-03-02T05:17:21;7.32;;;1.40;;
18082;SDS011;9168;51.194;6.840;2024-03-02T05:19:48;1.55;;;1.00;;
18082;SDS011;9168;51.194;6.840;2024-03-02T05:22:15;2.30;;;0.88;;
18082;SDS011;9168;51.194;6.840;2024-03-02T05:24:42;3.67;;;1.05;;
18082;SDS011;9168;51.194;6.840;2024-03-02T05:27:09;4.65;;;1.00;;
18082;SDS011;9168;51.194;6.840;2024-03-02T05:29:36;3.05;;;1.27;;
18082;SDS011;9168;51.194;6.840;2024-03-02T05:32:04;1.35;;;1.00;;
18082;SDS011;9168;51.194;6.840;2024-03-02T05:34:31;2.60;;;1.00;;
18082;SDS011;9168;51.194;6.840;2024-03-02T05:37:00;3.20;;;1.23;;
18082;SDS011;9168;51.194;6.840;2024-03-02T05:39:27;2.83;;;1.30;;
18082;SDS011;9168;51.194;6.840;2024-03-02T05:41:54;3.45;;;1.17;;
18082;SDS011;9168;51.194;6.840;2024-03-02T05:44:21;2.95;;;1.00;;
18082;SDS011;9168;51.194;6.840;2024-03-02T05:46:47;4.07;;;1.40;;
18082;SDS011;9168;51.194;6.840;2024-03-02T05:49:16;4.13;;;1.30;;
18082;SDS011;9168;51.194;6.840;2024-03-02T05:51:43;3.38;;;1.50;;
18082;SDS011;9168;51.194;6.840;2024-03-02T05:54:10;4.88;;;1.60;;
18082;SDS011;9168;51.194;6.840;2024-03-02T05:56:36;3.55;;;1.48;;
18082;SDS011;9168;51.194;6.840;2024-03-02T05:59:03;5.32;;;1.15;;
18082;SDS011;9168;51.194;6.840;2024-03-02T06:01:37;3.90;;;1.15;;
18082;SDS011;9168;51.194;6.840;2024-03-02T06:04:04;2.60;;;0.85;;
18082;SDS011;9168;51.194;6.840;2024-03-02T06:06:32;3.65;;;1.40;;
18082;SDS011;9168;51.194;6.840;2024-03-02T06:08:59;3.60;;;1.40;;
18082;SDS011;9168;51.194;6.840;2024-03-02T06:11:27;6.78;;;1.23;;
18082;SDS011;9168;51.194;6.840;2024-03-02T06:13:54;4.05;;;1.30;;
18082;SDS011;9168;51.194;6.840;2024-03-02T06:16:21;2.33;;;1.20;;
18082;SDS011;9168;51.194;6.840;2024-03-02T06:18:48;1.52;;;0.98;;
18082;SDS011;9168;51.194;6.840;2024-03-02T06:21:15;3.10;;;1.38;;
18082;SDS011;9168;51.194;6.840;2024-03-02T06:23:44;4.10;;;1.63;;
18082;SDS011;9168;51.194;6.840;2024-03-02T06:26:11;4.28;;;1.10;;
18082;SDS011;9168;51.194;6.840;2024-03-02T06:28:38;3.92;;;1.50;;
18082;SDS011;9168;51.194;6.840;2024-03-02T06:31:05;2.45;;;1.00;;
18082;SDS011;9168;51.194;6.840;2024-03-02T06:33:32;1.98;;;1.00;;
18082;SDS011;9168;51.194;6.840;2024-03-02T06:35:59;5.13;;;1.67;;
18082;SDS011;9168;51.194;6.840;2024-03-02T06:38:26;6.85;;;1.23;;
18082;SDS011;9168;51.194;6.840;2024-03-02T06:40:54;7.25;;;1.65;;
18082;SDS011;9168;51.194;6.840;2024-03-02T06:43:21;6.75;;;1.33;;
18082;SDS011;9168;51.194;6.840;2024-03-02T06:45:49;5.47;;;1.50;;
18082;SDS011;9168;51.194;6.840;2024-03-02T06:48:16;2.70;;;1.40;;
18082;SDS011;9168;51.194;6.840;2024-03-02T06:50:45;3.67;;;1.42;;
18082;SDS011;9168;51.194;6.840;2024-03-02T06:53:12;6.10;;;1.70;;
18082;SDS011;9168;51.194;6.840;2024-03-02T06:55:42;4.53;;;1.50;;
18082;SDS011;9168;51.194;6.840;2024-03-02T06:58:10;2.80;;;1.27;;
18082;SDS011;9168;51.194;6.840;2024-03-02T07:00:37;4.13;;;1.38;;
18082;SDS011;9168;51.194;6.840;2024-03-02T07:03:04;6.60;;;1.42;;
18082;SDS011;9168;51.194;6.840;2024-03-02T07:05:31;2.25;;;1.25;;
18082;SDS011;9168;51.194;6.840;2024-03-02T07:07:58;2.92;;;1.15;;
18082;SDS011;9168;51.194;6.840;2024-03-02T07:10:26;4.82;;;1.80;;
18082;SDS011;9168;51.194;6.840;2024-03-02T07:12:53;3.10;;;1.20;;
18082;SDS011;9168;51.194;6.840;2024-03-02T07:15:21;5.10;;;1.63;;
18082;SDS011;9168;51.194;6.840;2024-03-02T07:18:08;4.60;;;1.35;;
18082;SDS011;9168;51.194;6.840;2024-03-02T07:20:35;6.10;;;1.75;;
18082;SDS011;9168;51.194;6.840;2024-03-02T07:23:06;3.83;;;1.42;;
18082;SDS011;9168;51.194;6.840;2024-03-02T07:25:34;4.63;;;1.98;;
18082;SDS011;9168;51.194;6.840;2024-03-02T07:28:01;4.72;;;1.52;;
18082;SDS011;9168;51.194;6.840;2024-03-02T07:30:30;3.47;;;1.45;;
18082;SDS011;9168;51.194;6.840;2024-03-02T07:32:57;4.10;;;1.42;;
18082;SDS011;9168;51.194;6.840;2024-03-02T07:35:24;4.32;;;1.77;;
18082;SDS011;9168;51.194;6.840;2024-03-02T07:37:52;5.07;;;1.50;;
18082;SDS011;9168;51.194;6.840;2024-03-02T07:40:19;2.13;;;1.25;;
18082;SDS011;9168;51.194;6.840;2024-03-02T07:42:46;5.05;;;1.38;;
18082;SDS011;9168;51.194;6.840;2024-03-02T07:45:13;5.10;;;1.63;;
18082;SDS011;9168;51.194;6.840;2024-03-02T07:47:41;4.10;;;1.75;;
18082;SDS011;9168;51.194;6.840;2024-03-02T07:50:09;4.93;;;1.77;;
18082;SDS011;9168;51.194;6.840;2024-03-02T07:52:36;4.10;;;1.52;;
18082;SDS011;9168;51.194;6.840;2024-03-02T07:55:03;2.88;;;1.55;;
18082;SDS011;9168;51.194;6.840;2024-03-02T07:57:30;5.95;;;1.73;;
18082;SDS011;9168;51.194;6.840;2024-03-02T07:59:57;4.18;;;1.70;;
18082;SDS011;9168;51.194;6.840;2024-03-02T08:02:25;3.67;;;1.52;;
18082;SDS011;9168;51.194;6.840;2024-03-02T08:04:53;4.07;;;1.80;;
18082;SDS011;9168;51.194;6.840;2024-03-02T08:07:20;4.45;;;1.50;;
18082;SDS011;9168;51.194;6.840;2024-03-02T08:09:47;2.95;;;1.30;;
18082;SDS011;9168;51.194;6.840;2024-03-02T08:12:13;5.03;;;1.77;;
18082;SDS011;9168;51.194;6.840;2024-03-02T08:14:40;3.80;;;1.60;;
18082;SDS011;9168;51.194;6.840;2024-03-02T08:17:07;2.97;;;1.60;;
18082;SDS011;9168;51.194;6.840;2024-03-02T08:19:36;6.15;;;1.88;;
18082;SDS011;9168;51.194;6.840;2024-03-02T08:22:05;3.40;;;1.52;;
18082;SDS011;9168;51.194;6.840;2024-03-02T08:24:32;3.10;;;1.55;;
18082;SDS011;9168;51.194;6.840;2024-03-02T08:26:59;6.72;;;1.73;;
18082;SDS011;9168;51.194;6.840;2024-03-02T08:29:26;3.42;;;1.63;;
18082;SDS011;9168;51.194;6.840;2024-03-02T08:31:53;6.15;;;1.52;;
18082;SDS011;9168;51.194;6.840;2024-03-02T08:34:19;2.20;;;1.38;;
18082;SDS011;9168;51.194;6.840;2024-03-02T08:36:46;3.70;;;1.20;;
18082;SDS011;9168;51.194;6.840;2024-03-02T08:39:15;3.95;;;1.50;;
18082;SDS011;9168;51.194;6.840;2024-03-02T08:41:42;2.88;;;1.52;;
18082;SDS011;9168;51.194;6.840;2024-03-02T08:44:10;2.85;;;1.33;;
18082;SDS011;9168;51.194;6.840;2024-03-02T08:46:38;3.80;;;1.48;;
18082;SDS011;9168;51.194;6.840;2024-03-02T08:49:05;5.38;;;1.60;;
18082;SDS011;9168;51.194;6.840;2024-03-02T08:51:32;13.48;;;1.10;;
18082;SDS011;9168;51.194;6.840;2024-03-02T08:53:59;3.33;;;1.52;;
18082;SDS011;9168;51.194;6.840;2024-03-02T08:56:28;3.05;;;1.40;;
18082;SDS011;9168;51.194;6.840;2024-03-02T08:58:54;4.03;;;1.95;;
18082;SDS011;9168;51.194;6.840;2024-03-02T09:01:21;1.88;;;1.17;;
18082;SDS011;9168;51.194;6.840;2024-03-02T09:03:50;4.28;;;1.77;;
18082;SDS011;9168;51.194;6.840;2024-03-02T09:06:17;2.67;;;1.33;;
18082;SDS011;9168;51.194;6.840;2024-03-02T09:08:45;3.47;;;1.42;;
18082;SDS011;9168;51.194;6.840;2024-03-02T09:11:13;4.30;;;1.70;;
18082;SDS011;9168;51.194;6.840;2024-03-02T09:13:41;2.47;;;1.40;;
18082;SDS011;9168;51.194;6.840;2024-03-02T09:16:09;4.55;;;1.60;;
18082;SDS011;9168;51.194;6.840;2024-03-02T09:18:36;2.15;;;1.30;;
18082;SDS011;9168;51.194;6.840;2024-03-02T09:21:04;2.55;;;1.30;;
18082;SDS011;9168;51.194;6.840;2024-03-02T09:23:31;5.13;;;1.48;;
18082;SDS011;9168;51.194;6.840;2024-03-02T09:25:59;4.40;;;1.85;;
18082;SDS011;9168;51.194;6.840;2024-03-02T09:28:26;2.58;;;1.33;;
18082;SDS011;9168;51.194;6.840;2024-03-02T09:30:54;3.28;;;1.40;;
18082;SDS011;9168;51.194;6.840;2024-03-02T09:33:21;4.07;;;1.40;;
18082;SDS011;9168;51.194;6.840;2024-03-02T09:35:48;1.67;;;0.93;;
18082;SDS011;9168;51.194;6.840;2024-03-02T09:38:15;2.88;;;0.90;;
18082;SDS011;9168;51.194;6.840;2024-03-02T09:40:42;4.97;;;0.82;;
18082;SDS011;9168;51.194;6.840;2024-03-02T09:43:09;1.70;;;0.82;;
18082;SDS011;9168;51.194;6.840;2024-03-02T09:45:36;2.08;;;0.80;;
18082;SDS011;9168;51.194;6.840;2024-03-02T09:48:06;1.30;;;0.70;;
18082;SDS011;9168;51.194;6.840;2024-03-02T09:50:33;0.77;;;0.50;;
18082;SDS011;9168;51.194;6.840;2024-03-02T09:53:00;2.38;;;1.40;;
18082;SDS011;9168;51.194;6.840;2024-03-02T09:55:28;2.13;;;0.93;;
18082;SDS011;9168;51.194;6.840;2024-03-02T09:57:55;1.25;;;0.80;;
18082;SDS011;9168;51.194;6.840;2024-03-02T10:00:25;3.50;;;0.90;;
18082;SDS011;9168;51.194;6.840;2024-03-02T10:02:55;3.22;;;0.93;;
18082;SDS011;9168;51.194;6.840;2024-03-02T10:05:25;0.93;;;0.70;;
18082;SDS011;9168;51.194;6.840;2024-03-02T10:08:00;0.75;;;0.65;;
18082;SDS011;9168;51.194;6.840;2024-03-02T10:10:34;1.58;;;0.90;;
18082;SDS011;9168;51.194;6.840;2024-03-02T10:13:05;2.60;;;0.80;;
18082;SDS011;9168;51.194;6.840;2024-03-02T10:15:34;2.00;;;0.80;;
18082;SDS011;9168;51.194;6.840;2024-03-02T10:18:02;2.33;;;1.00;;
18082;SDS011;9168;51.194;6.840;2024-03-02T10:20:30;2.22;;;0.88;;
18082;SDS011;9168;51.194;6.840;2024-03-02T10:23:09;2.60;;;1.00;;
18082;SDS011;9168;51.194;6.840;2024-03-02T10:25:36;3.58;;;1.15;;
18082;SDS011;9168;51.194;6.840;2024-03-02T10:28:03;4.78;;;1.35;;
18082;SDS011;9168;51.194;6.840;2024-03-02T10:30:31;3.45;;;1.20;;
18082;SDS011;9168;51.194;6.840;2024-03-02T10:32:59;3.65;;;1.40;;
18082;SDS011;9168;51.194;6.840;2024-03-02T10:35:26;3.33;;;1.45;;
18082;SDS011;9168;51.194;6.840;2024-03-02T10:37:55;2.35;;;1.05;;
18082;SDS011;9168;51.194;6.840;2024-03-02T10:40:22;2.28;;;1.20;;
18082;SDS011;9168;51.194;6.840;2024-03-02T10:42:49;4.00;;;1.13;;
18082;SDS011;9168;51.194;6.840;2024-03-02T10:45:17;2.53;;;1.10;;
18082;SDS011;9168;51.194;6.840;2024-03-02T10:47:46;2.67;;;1.27;;
18082;SDS011;9168;51.194;6.840;2024-03-02T10:50:13;3.33;;;0.93;;
18082;SDS011;9168;51.194;6.840;2024-03-02T10:52:40;2.03;;;1.08;;
18082;SDS011;9168;51.194;6.840;2024-03-02T10:55:09;3.50;;;1.27;;
18082;SDS011;9168;51.194;6.840;2024-03-02T10:57:40;1.95;;;0.90;;
18082;SDS011;9168;51.194;6.840;2024-03-02T11:00:11;9.48;;;1.40;;
18082;SDS011;9168;51.194;6.840;2024-03-02T11:02:45;1.55;;;0.88;;
18082;SDS011;9168;51.194;6.840;2024-03-02T11:05:16;3.72;;;1.08;;
18082;SDS011;9168;51.194;6.840;2024-03-02T11:07:53;3.00;;;1.17;;
18082;SDS011;9168;51.194;6.840;2024-03-02T11:10:25;2.50;;;1.02;;
18082;SDS011;9168;51.194;6.840;2024-03-02T11:12:57;3.83;;;0.90;;
18082;SDS011;9168;51.194;6.840;2024-03-02T11:15:29;2.92;;;1.10;;
18082;SDS011;9168;51.194;6.840;2024-03-02T11:17:57;4.07;;;1.45;;
18082;SDS011;9168;51.194;6.840;2024-03-02T11:20:24;3.03;;;1.48;;
18082;SDS011;9168;51.194;6.840;2024-03-02T11:22:53;2.55;;;1.25;;
18082;SDS011;9168;51.194;6.840;2024-03-02T11:25:25;2.55;;;1.00;;
18082;SDS011;9168;51.194;6.840;2024-03-02T11:27:59;1.83;;;1.15;;
18082;SDS011;9168;51.194;6.840;2024-03-02T11:33:16;2.22;;;1.30;;
18082;SDS011;9168;51.194;6.840;2024-03-02T11:35:54;2.20;;;1.17;;
18082;SDS011;9168;51.194;6.840;2024-03-02T11:38:22;2.17;;;1.20;;
18082;SDS011;9168;51.194;6.840;2024-03-02T11:40:54;4.18;;;1.48;;
18082;SDS011;9168;51.194;6.840;2024-03-02T11:43:22;1.30;;;1.08;;
18082;SDS011;9168;51.194;6.840;2024-03-02T11:45:49;6.65;;;1.50;;
18082;SDS011;9168;51.194;6.840;2024-03-02T11:48:23;2.05;;;1.20;;
18082;SDS011;9168;51.194;6.840;2024-03-02T11:50:51;1.55;;;1.10;;
18082;SDS011;9168;51.194;6.840;2024-03-02T11:53:19;2.40;;;1.17;;
18082;SDS011;9168;51.194;6.840;2024-03-02T11:55:46;2.38;;;1.23;;
18082;SDS011;9168;51.194;6.840;2024-03-02T11:58:16;2.20;;;1.00;;
18082;SDS011;9168;51.194;6.840;2024-03-02T12:00:45;2.25;;;1.45;;
18082;SDS011;9168;51.194;6.840;2024-03-02T12:03:13;3.10;;;1.23;;
18082;SDS011;9168;51.194;6.840;2024-03-02T12:05:40;6.60;;;1.27;;
18082;SDS011;9168;51.194;6.840;2024-03-02T12:08:08;2.40;;;1.20;;
18082;SDS011;9168;51.194;6.840;2024-03-02T12:10:35;3.40;;;1.20;;
18082;SDS011;9168;51.194;6.840;2024-03-02T12:13:04;1.90;;;1.20;;
18082;SDS011;9168;51.194;6.840;2024-03-02T12:15:34;6.38;;;1.40;;
18082;SDS011;9168;51.194;6.840;2024-03-02T12:18:02;2.45;;;1.40;;
18082;SDS011;9168;51.194;6.840;2024-03-02T12:20:29;2.92;;;1.40;;
18082;SDS011;9168;51.194;6.840;2024-03-02T12:22:58;1.52;;;1.02;;
18082;SDS011;9168;51.194;6.840;2024-03-02T12:25:26;2.20;;;1.00;;
18082;SDS011;9168;51.194;6.840;2024-03-02T12:27:54;2.55;;;1.05;;
18082;SDS011;9168;51.194;6.840;2024-03-02T12:30:22;0.95;;;0.80;;
18082;SDS011;9168;51.194;6.840;2024-03-02T12:32:51;2.13;;;1.00;;
18082;SDS011;9168;51.194;6.840;2024-03-02T12:35:18;1.67;;;0.77;;
18082;SDS011;9168;51.194;6.840;2024-03-02T12:37:46;2.55;;;1.08;;
18082;SDS011;9168;51.194;6.840;2024-03-02T12:40:15;1.73;;;0.90;;
18082;SDS011;9168;51.194;6.840;2024-03-02T12:42:43;4.22;;;1.00;;
18082;SDS011;9168;51.194;6.840;2024-03-02T12:45:11;2.25;;;1.00;;
18082;SDS011;9168;51.194;6.840;2024-03-02T12:47:39;2.05;;;1.00;;
18082;SDS011;9168;51.194;6.840;2024-03-02T12:50:08;1.52;;;0.90;;
18082;SDS011;9168;51.194;6.840;2024-03-02T12:52:36;0.80;;;0.75;;
18082;SDS011;9168;51.194;6.840;2024-03-02T12:55:04;1.85;;;0.80;;
18082;SDS011;9168;51.194;6.840;2024-03-02T12:57:32;1.75;;;0.93;;
18082;SDS011;9168;51.194;6.840;2024-03-02T12:59:59;2.53;;;0.90;;
18082;SDS011;9168;51.194;6.840;2024-03-02T13:02:28;1.80;;;1.00;;
18082;SDS011;9168;51.194;6.840;2024-03-02T13:04:55;2.22;;;1.02;;
18082;SDS011;9168;51.194;6.840;2024-03-02T13:07:25;3.33;;;0.80;;
18082;SDS011;9168;51.194;6.840;2024-03-02T13:09:52;2.55;;;0.93;;
18082;SDS011;9168;51.194;6.840;2024-03-02T13:12:20;1.95;;;1.00;;
18082;SDS011;9168;51.194;6.840;2024-03-02T13:14:48;2.25;;;1.05;;
18082;SDS011;9168;51.194;6.840;2024-03-02T13:17:16;1.20;;;0.70;;
18082;SDS011;9168;51.194;6.840;2024-03-02T13:19:50;1.33;;;0.73;;
18082;SDS011;9168;51.194;6.840;2024-03-02T13:22:19;3.55;;;0.93;;
18082;SDS011;9168;51.194;6.840;2024-03-02T13:24:47;2.50;;;0.93;;
18082;SDS011;9168;51.194;6.840;2024-03-02T13:27:14;2.67;;;0.90;;
18082;SDS011;9168;51.194;6.840;2024-03-02T13:29:44;0.88;;;0.80;;
18082;SDS011;9168;51.194;6.840;2024-03-02T13:32:11;2.60;;;1.00;;
18082;SDS011;9168;51.194;6.840;2024-03-02T13:34:38;1.27;;;0.70;;
18082;SDS011;9168;51.194;6.840;2024-03-02T13:37:05;1.25;;;0.77;;
18082;SDS011;9168;51.194;6.840;2024-03-02T13:39:32;1.52;;;0.98;;
18082;SDS011;9168;51.194;6.840;2024-03-02T13:42:06;2.03;;;0.82;;
18082;SDS011;9168;51.194;6.840;2024-03-02T13:44:33;2.17;;;0.80;;
18082;SDS011;9168;51.194;6.840;2024-03-02T13:47:00;1.27;;;0.80;;
18082;SDS011;9168;51.194;6.840;2024-03-02T13:49:27;3.88;;;1.10;;
18082;SDS011;9168;51.194;6.840;2024-03-02T13:51:58;2.45;;;0.95;;
18082;SDS011;9168;51.194;6.840;2024-03-02T13:54:28;1.77;;;0.80;;
18082;SDS011;9168;51.194;6.840;2024-03-02T13:56:55;0.82;;;0.77;;
18082;SDS011;9168;51.194;6.840;2024-03-02T13:59:25;1.70;;;1.00;;
18082;SDS011;9168;51.194;6.840;2024-03-02T14:01:52;2.05;;;0.80;;
18082;SDS011;9168;51.194;6.840;2024-03-02T14:04:19;1.30;;;0.73;;
18082;SDS011;9168;51.194;6.840;2024-03-02T14:06:46;0.80;;;0.68;;
18082;SDS011;9168;51.194;6.840;2024-03-02T14:09:13;1.67;;;0.88;;
18082;SDS011;9168;51.194;6.840;2024-03-02T14:11:41;1.38;;;0.80;;
18082;SDS011;9168;51.194;6.840;2024-03-02T14:14:08;4.07;;;0.95;;
18082;SDS011;9168;51.194;6.840;2024-03-02T14:16:37;3.03;;;0.90;;
18082;SDS011;9168;51.194;6.840;2024-03-02T14:19:04;2.53;;;1.00;;
18082;SDS011;9168;51.194;6.840;2024-03-02T14:21:32;2.25;;;1.05;;
18082;SDS011;9168;51.194;6.840;2024-03-02T14:24:00;2.80;;;1.17;;
18082;SDS011;9168;51.194;6.840;2024-03-02T14:26:27;2.17;;;0.77;;
18082;SDS011;9168;51.194;6.840;2024-03-02T14:28:58;1.40;;;0.70;;
18082;SDS011;9168;51.194;6.840;2024-03-02T14:31:26;3.13;;;0.85;;
18082;SDS011;9168;51.194;6.840;2024-03-02T14:33:54;2.08;;;1.15;;
18082;SDS011;9168;51.194;6.840;2024-03-02T14:36:21;2.38;;;0.80;;
18082;SDS011;9168;51.194;6.840;2024-03-02T14:38:48;2.45;;;0.52;;
18082;SDS011;9168;51.194;6.840;2024-03-02T14:41:16;2.33;;;0.90;;
18082;SDS011;9168;51.194;6.840;2024-03-02T14:43:43;1.63;;;0.93;;
18082;SDS011;9168;51.194;6.840;2024-03-02T14:46:09;2.10;;;1.00;;
18082;SDS011;9168;51.194;6.840;2024-03-02T14:48:37;1.92;;;1.27;;
18082;SDS011;9168;51.194;6.840;2024-03-02T14:51:05;0.80;;;0.65;;
18082;SDS011;9168;51.194;6.840;2024-03-02T14:53:32;1.85;;;0.73;;
18082;SDS011;9168;51.194;6.840;2024-03-02T14:56:00;1.20;;;0.80;;
18082;SDS011;9168;51.194;6.840;2024-03-02T14:58:27;1.48;;;0.90;;
18082;SDS011;9168;51.194;6.840;2024-03-02T15:00:54;2.35;;;1.00;;
18082;SDS011;9168;51.194;6.840;2024-03-02T15:03:21;1.20;;;0.70;;
18082;SDS011;9168;51.194;6.840;2024-03-02T15:05:47;2.38;;;0.80;;
18082;SDS011;9168;51.194;6.840;2024-03-02T15:08:18;1.50;;;1.00;;
18082;SDS011;9168;51.194;6.840;2024-03-02T15:10:45;1.30;;;0.82;;